sensor_id;sensor_type;location;lat;lon;timestamp;P1;durP1;ratioP1;P2;durP2;ratioP2
4700;SDS011;8724;51.272;6.554;2023-12-29T00:00:09;4.23;;;1.80;;
4700;SDS011;8724;51.272;6.554;2023-12-29T00:02:39;4.30;;;1.63;;
4700;SDS011;8724;51.272;6.554;2023-12-29T00:05:07;4.07;;;1.80;;
4700;SDS011;8724;51.272;6.554;2023-12-29T00:07:36;4.97;;;1.77;;
4700;SDS011;8724;51.272;6.554;2023-12-29T00:10:08;4.27;;;1.20;;
4700;SDS011;8724;51.272;6.554;2023-12-29T00:12:36;2.47;;;1.50;;
4700;SDS011;8724;51.272;6.554;2023-12-29T00:15:05;8.80;;;1.90;;
4700;SDS011;8724;51.272;6.554;2023-12-29T00:17:36;3.20;;;1.60;;
4700;SDS011;8724;51.272;6.554;2023-12-29T00:20:07;3.53;;;1.50;;
4700;SDS011;8724;51.272;6.554;2023-12-29T00:22:38;5.40;;;1.80;;
4700;SDS011;8724;51.272;6.554;2023-12-29T00:25:06;2.67;;;1.80;;
4700;SDS011;8724;51.272;6.554;2023-12-29T00:27:35;2.13;;;1.50;;
4700;SDS011;8724;51.272;6.554;2023-12-29T00:30:04;4.63;;;1.53;;
4700;SDS011;8724;51.272;6.554;2023-12-29T00:32:33;2.93;;;1.90;;
4700;SDS011;8724;51.272;6.554;2023-12-29T00:35:03;6.10;;;1.83;;
4700;SDS011;8724;51.272;6.554;2023-12-29T00:37:32;6.10;;;2.10;;
4700;SDS011;8724;51.272;6.554;2023-12-29T00:40:00;7.20;;;2.17;;
4700;SDS011;8724;51.272;6.554;2023-12-29T00:42:29;5.60;;;1.80;;
4700;SDS011;8724;51.272;6.554;2023-12-29T00:44:58;2.60;;;1.10;;
4700;SDS011;8724;51.272;6.554;2023-12-29T00:47:26;4.10;;;2.00;;
4700;SDS011;8724;51.272;6.554;2023-12-29T00:49:56;3.80;;;1.40;;
4700;SDS011;8724;51.272;6.554;2023-12-29T00:52:24;3.30;;;2.00;;
4700;SDS011;8724;51.272;6.554;2023-12-29T00:54:53;9.03;;;2.00;;
4700;SDS011;8724;51.272;6.554;2023-12-29T00:57:21;7.17;;;1.40;;
4700;SDS011;8724;51.272;6.554;2023-12-29T00:59:49;3.50;;;1.90;;
4700;SDS011;8724;51.272;6.554;2023-12-29T01:02:17;4.20;;;1.70;;
4700;SDS011;8724;51.272;6.554;2023-12-29T01:04:45;5.63;;;1.43;;
4700;SDS011;8724;51.272;6.554;2023-12-29T01:07:15;5.87;;;1.73;;
4700;SDS011;8724;51.272;6.554;2023-12-29T01:09:43;5.13;;;1.67;;
4700;SDS011;8724;51.272;6.554;2023-12-29T01:12:11;2.80;;;1.83;;
4700;SDS011;8724;51.272;6.554;2023-12-29T01:14:41;6.33;;;1.73;;
4700;SDS011;8724;51.272;6.554;2023-12-29T01:17:09;1.93;;;1.40;;
4700;SDS011;8724;51.272;6.554;2023-12-29T01:19:38;3.33;;;1.67;;
4700;SDS011;8724;51.272;6.554;2023-12-29T01:22:06;4.13;;;2.17;;
4700;SDS011;8724;51.272;6.554;2023-12-29T01:24:36;3.03;;;1.67;;
4700;SDS011;8724;51.272;6.554;2023-12-29T01:27:11;6.63;;;1.80;;
4700;SDS011;8724;51.272;6.554;2023-12-29T01:29:40;5.00;;;1.80;;
4700;SDS011;8724;51.272;6.554;2023-12-29T01:32:08;4.37;;;1.67;;
4700;SDS011;8724;51.272;6.554;2023-12-29T01:34:37;3.97;;;1.80;;
4700;SDS011;8724;51.272;6.554;2023-12-29T01:37:05;5.20;;;2.10;;
4700;SDS011;8724;51.272;6.554;2023-12-29T01:39:33;4.23;;;2.00;;
4700;SDS011;8724;51.272;6.554;2023-12-29T01:42:03;7.40;;;2.80;;
4700;SDS011;8724;51.272;6.554;2023-12-29T01:44:32;8.80;;;1.50;;
4700;SDS011;8724;51.272;6.554;2023-12-29T01:47:00;6.63;;;2.40;;
4700;SDS011;8724;51.272;6.554;2023-12-29T01:49:33;5.87;;;2.23;;
4700;SDS011;8724;51.272;6.554;2023-12-29T01:52:02;9.13;;;1.87;;
4700;SDS011;8724;51.272;6.554;2023-12-29T01:54:32;6.83;;;2.23;;
4700;SDS011;8724;51.272;6.554;2023-12-29T01:57:04;5.40;;;1.90;;
4700;SDS011;8724;51.272;6.554;2023-12-29T01:59:32;4.13;;;2.10;;
4700;SDS011;8724;51.272;6.554;2023-12-29T02:02:02;8.83;;;2.27;;
4700;SDS011;8724;51.272;6.554;2023-12-29T02:04:30;6.00;;;2.70;;
4700;SDS011;8724;51.272;6.554;2023-12-29T02:06:59;6.50;;;2.00;;
4700;SDS011;8724;51.272;6.554;2023-12-29T02:09:27;12.43;;;2.30;;
4700;SDS011;8724;51.272;6.554;2023-12-29T02:11:56;4.27;;;2.10;;
4700;SDS011;8724;51.272;6.554;2023-12-29T02:14:26;6.57;;;2.67;;
4700;SDS011;8724;51.272;6.554;2023-12-29T02:16:56;5.80;;;1.83;;
4700;SDS011;8724;51.272;6.554;2023-12-29T02:19:40;6.10;;;2.00;;
4700;SDS011;8724;51.272;6.554;2023-12-29T02:22:10;9.33;;;2.30;;
4700;SDS011;8724;51.272;6.554;2023-12-29T02:24:44;5.73;;;2.13;;
4700;SDS011;8724;51.272;6.554;2023-12-29T02:27:18;7.53;;;3.10;;
4700;SDS011;8724;51.272;6.554;2023-12-29T02:29:56;5.97;;;2.10;;
4700;SDS011;8724;51.272;6.554;2023-12-29T02:32:36;7.47;;;2.60;;
4700;SDS011;8724;51.272;6.554;2023-12-29T02:35:09;6.93;;;2.50;;
4700;SDS011;8724;51.272;6.554;2023-12-29T02:37:41;8.30;;;2.57;;
4700;SDS011;8724;51.272;6.554;2023-12-29T02:40:11;5.17;;;2.10;;
4700;SDS011;8724;51.272;6.554;2023-12-29T02:42:44;5.00;;;1.93;;
4700;SDS011;8724;51.272;6.554;2023-12-29T02:45:13;6.50;;;2.30;;
4700;SDS011;8724;51.272;6.554;2023-12-29T02:47:41;7.00;;;2.10;;
4700;SDS011;8724;51.272;6.554;2023-12-29T02:50:10;9.40;;;1.97;;
4700;SDS011;8724;51.272;6.554;2023-12-29T02:52:38;7.13;;;2.30;;
4700;SDS011;8724;51.272;6.554;2023-12-29T02:55:07;8.20;;;3.27;;
4700;SDS011;8724;51.272;6.554;2023-12-29T02:57:37;7.17;;;2.33;;
4700;SDS011;8724;51.272;6.554;2023-12-29T03:00:06;8.40;;;1.90;;
4700;SDS011;8724;51.272;6.554;2023-12-29T03:02:35;5.80;;;1.67;;
4700;SDS011;8724;51.272;6.554;2023-12-29T03:05:03;7.13;;;2.30;;
4700;SDS011;8724;51.272;6.554;2023-12-29T03:07:32;8.83;;;3.23;;
4700;SDS011;8724;51.272;6.554;2023-12-29T03:10:01;5.20;;;1.77;;
4700;SDS011;8724;51.272;6.554;2023-12-29T03:12:29;8.27;;;2.63;;
4700;SDS011;8724;51.272;6.554;2023-12-29T03:14:59;9.00;;;3.03;;
4700;SDS011;8724;51.272;6.554;2023-12-29T03:17:27;5.43;;;2.20;;
4700;SDS011;8724;51.272;6.554;2023-12-29T03:19:55;4.50;;;1.70;;
4700;SDS011;8724;51.272;6.554;2023-12-29T03:22:23;5.13;;;1.97;;
4700;SDS011;8724;51.272;6.554;2023-12-29T03:24:51;8.73;;;2.77;;
4700;SDS011;8724;51.272;6.554;2023-12-29T03:27:20;2.57;;;2.13;;
4700;SDS011;8724;51.272;6.554;2023-12-29T03:29:48;5.20;;;2.00;;
4700;SDS011;8724;51.272;6.554;2023-12-29T03:32:17;4.77;;;2.00;;
4700;SDS011;8724;51.272;6.554;2023-12-29T03:34:45;5.00;;;3.10;;
4700;SDS011;8724;51.272;6.554;2023-12-29T03:37:14;4.20;;;1.90;;
4700;SDS011;8724;51.272;6.554;2023-12-29T03:39:44;10.70;;;2.20;;
4700;SDS011;8724;51.272;6.554;2023-12-29T03:42:13;3.80;;;1.77;;
4700;SDS011;8724;51.272;6.554;2023-12-29T03:44:41;4.37;;;1.63;;
4700;SDS011;8724;51.272;6.554;2023-12-29T03:47:09;5.67;;;2.30;;
4700;SDS011;8724;51.272;6.554;2023-12-29T03:49:39;4.23;;;1.77;;
4700;SDS011;8724;51.272;6.554;2023-12-29T03:52:08;5.17;;;2.03;;
4700;SDS011;8724;51.272;6.554;2023-12-29T03:54:36;4.43;;;1.63;;
4700;SDS011;8724;51.272;6.554;2023-12-29T03:57:04;6.47;;;2.07;;
4700;SDS011;8724;51.272;6.554;2023-12-29T03:59:35;12.70;;;2.10;;
4700;SDS011;8724;51.272;6.554;2023-12-29T04:02:03;8.50;;;2.60;;
4700;SDS011;8724;51.272;6.554;2023-12-29T04:04:32;4.43;;;1.80;;
4700;SDS011;8724;51.272;6.554;2023-12-29T04:07:07;3.23;;;1.70;;
4700;SDS011;8724;51.272;6.554;2023-12-29T04:09:35;4.20;;;1.93;;
4700;SDS011;8724;51.272;6.554;2023-12-29T04:12:04;5.83;;;2.13;;
4700;SDS011;8724;51.272;6.554;2023-12-29T04:14:32;7.83;;;2.17;;
4700;SDS011;8724;51.272;6.554;2023-12-29T04:17:00;7.87;;;2.10;;
4700;SDS011;8724;51.272;6.554;2023-12-29T04:19:30;5.27;;;1.70;;
4700;SDS011;8724;51.272;6.554;2023-12-29T04:21:58;3.83;;;1.60;;
4700;SDS011;8724;51.272;6.554;2023-12-29T04:24:28;3.63;;;1.40;;
4700;SDS011;8724;51.272;6.554;2023-12-29T04:26:56;7.67;;;1.83;;
4700;SDS011;8724;51.272;6.554;2023-12-29T04:29:25;4.27;;;2.13;;
4700;SDS011;8724;51.272;6.554;2023-12-29T04:31:53;3.43;;;1.87;;
4700;SDS011;8724;51.272;6.554;2023-12-29T04:34:21;6.20;;;1.90;;
4700;SDS011;8724;51.272;6.554;2023-12-29T04:36:50;3.70;;;1.57;;
4700;SDS011;8724;51.272;6.554;2023-12-29T04:39:18;4.20;;;1.87;;
4700;SDS011;8724;51.272;6.554;2023-12-29T04:41:47;8.03;;;2.30;;
4700;SDS011;8724;51.272;6.554;2023-12-29T04:44:15;8.10;;;2.60;;
4700;SDS011;8724;51.272;6.554;2023-12-29T04:46:43;6.00;;;1.83;;
4700;SDS011;8724;51.272;6.554;2023-12-29T04:49:12;4.70;;;1.73;;
4700;SDS011;8724;51.272;6.554;2023-12-29T04:51:40;14.13;;;2.60;;
4700;SDS011;8724;51.272;6.554;2023-12-29T04:54:09;5.43;;;1.70;;
4700;SDS011;8724;51.272;6.554;2023-12-29T04:56:37;3.60;;;1.33;;
4700;SDS011;8724;51.272;6.554;2023-12-29T04:59:06;6.30;;;2.33;;
4700;SDS011;8724;51.272;6.554;2023-12-29T05:01:34;4.10;;;2.17;;
4700;SDS011;8724;51.272;6.554;2023-12-29T05:04:02;4.10;;;1.60;;
4700;SDS011;8724;51.272;6.554;2023-12-29T05:06:31;5.03;;;1.57;;
4700;SDS011;8724;51.272;6.554;2023-12-29T05:08:59;6.90;;;1.90;;
4700;SDS011;8724;51.272;6.554;2023-12-29T05:11:27;5.37;;;1.80;;
4700;SDS011;8724;51.272;6.554;2023-12-29T05:13:56;5.97;;;2.07;;
4700;SDS011;8724;51.272;6.554;2023-12-29T05:16:25;4.30;;;1.60;;
4700;SDS011;8724;51.272;6.554;2023-12-29T05:18:53;7.07;;;2.80;;
4700;SDS011;8724;51.272;6.554;2023-12-29T05:21:21;6.53;;;2.20;;
4700;SDS011;8724;51.272;6.554;2023-12-29T05:23:50;6.30;;;2.20;;
4700;SDS011;8724;51.272;6.554;2023-12-29T05:26:18;5.20;;;2.17;;
4700;SDS011;8724;51.272;6.554;2023-12-29T05:28:46;6.53;;;2.27;;
4700;SDS011;8724;51.272;6.554;2023-12-29T05:31:14;4.60;;;1.83;;
4700;SDS011;8724;51.272;6.554;2023-12-29T05:33:44;7.03;;;2.00;;
4700;SDS011;8724;51.272;6.554;2023-12-29T05:36:13;9.63;;;1.90;;
4700;SDS011;8724;51.272;6.554;2023-12-29T05:38:43;5.30;;;2.10;;
4700;SDS011;8724;51.272;6.554;2023-12-29T05:41:12;7.23;;;1.70;;
4700;SDS011;8724;51.272;6.554;2023-12-29T05:43:41;6.23;;;1.60;;
4700;SDS011;8724;51.272;6.554;2023-12-29T05:46:09;2.83;;;1.73;;
4700;SDS011;8724;51.272;6.554;2023-12-29T05:48:38;9.40;;;2.07;;
4700;SDS011;8724;51.272;6.554;2023-12-29T05:51:09;8.10;;;3.07;;
4700;SDS011;8724;51.272;6.554;2023-12-29T05:53:39;8.00;;;2.77;;
4700;SDS011;8724;51.272;6.554;2023-12-29T05:56:07;5.40;;;2.73;;
4700;SDS011;8724;51.272;6.554;2023-12-29T05:58:35;8.73;;;1.90;;
4700;SDS011;8724;51.272;6.554;2023-12-29T06:01:03;6.27;;;1.70;;
4700;SDS011;8724;51.272;6.554;2023-12-29T06:03:32;3.03;;;1.30;;
4700;SDS011;8724;51.272;6.554;2023-12-29T06:06:00;8.00;;;2.03;;
4700;SDS011;8724;51.272;6.554;2023-12-29T06:08:30;2.90;;;1.53;;
4700;SDS011;8724;51.272;6.554;2023-12-29T06:10:58;7.60;;;2.60;;
4700;SDS011;8724;51.272;6.554;2023-12-29T06:13:27;4.43;;;1.57;;
4700;SDS011;8724;51.272;6.554;2023-12-29T06:15:55;8.30;;;2.27;;
4700;SDS011;8724;51.272;6.554;2023-12-29T06:18:24;7.10;;;1.80;;
4700;SDS011;8724;51.272;6.554;2023-12-29T06:20:52;4.33;;;1.93;;
4700;SDS011;8724;51.272;6.554;2023-12-29T06:23:21;8.23;;;2.50;;
4700;SDS011;8724;51.272;6.554;2023-12-29T06:25:50;9.13;;;2.23;;
4700;SDS011;8724;51.272;6.554;2023-12-29T06:28:18;5.47;;;1.87;;
4700;SDS011;8724;51.272;6.554;2023-12-29T06:30:46;2.63;;;1.50;;
4700;SDS011;8724;51.272;6.554;2023-12-29T06:33:15;4.83;;;1.73;;
4700;SDS011;8724;51.272;6.554;2023-12-29T06:35:47;3.00;;;1.40;;
4700;SDS011;8724;51.272;6.554;2023-12-29T06:38:15;8.57;;;2.00;;
4700;SDS011;8724;51.272;6.554;2023-12-29T06:40:43;2.37;;;1.40;;
4700;SDS011;8724;51.272;6.554;2023-12-29T06:43:13;5.00;;;1.90;;
4700;SDS011;8724;51.272;6.554;2023-12-29T06:45:41;9.33;;;1.90;;
4700;SDS011;8724;51.272;6.554;2023-12-29T06:48:09;5.50;;;1.67;;
4700;SDS011;8724;51.272;6.554;2023-12-29T06:50:37;7.00;;;2.13;;
4700;SDS011;8724;51.272;6.554;2023-12-29T06:53:06;15.40;;;3.37;;
4700;SDS011;8724;51.272;6.554;2023-12-29T06:55:34;4.47;;;1.70;;
4700;SDS011;8724;51.272;6.554;2023-12-29T06:58:02;3.63;;;1.80;;
4700;SDS011;8724;51.272;6.554;2023-12-29T07:00:33;3.73;;;1.90;;
4700;SDS011;8724;51.272;6.554;2023-12-29T07:03:01;3.30;;;1.87;;
4700;SDS011;8724;51.272;6.554;2023-12-29T07:05:30;5.23;;;1.57;;
4700;SDS011;8724;51.272;6.554;2023-12-29T07:07:58;4.50;;;1.77;;
4700;SDS011;8724;51.272;6.554;2023-12-29T07:10:27;8.80;;;1.77;;
4700;SDS011;8724;51.272;6.554;2023-12-29T07:12:55;5.90;;;2.07;;
4700;SDS011;8724;51.272;6.554;2023-12-29T07:15:23;7.57;;;2.07;;
4700;SDS011;8724;51.272;6.554;2023-12-29T07:17:53;3.73;;;1.90;;
4700;SDS011;8724;51.272;6.554;2023-12-29T07:20:21;9.07;;;1.53;;
4700;SDS011;8724;51.272;6.554;2023-12-29T07:22:50;8.30;;;2.63;;
4700;SDS011;8724;51.272;6.554;2023-12-29T07:25:18;10.20;;;2.57;;
4700;SDS011;8724;51.272;6.554;2023-12-29T07:27:46;6.80;;;1.80;;
4700;SDS011;8724;51.272;6.554;2023-12-29T07:30:15;3.93;;;1.40;;
4700;SDS011;8724;51.272;6.554;2023-12-29T07:32:44;8.47;;;2.13;;
4700;SDS011;8724;51.272;6.554;2023-12-29T07:35:13;4.73;;;1.60;;
4700;SDS011;8724;51.272;6.554;2023-12-29T07:37:44;10.43;;;2.33;;
4700;SDS011;8724;51.272;6.554;2023-12-29T07:40:13;4.93;;;1.80;;
4700;SDS011;8724;51.272;6.554;2023-12-29T07:42:42;9.50;;;2.27;;
4700;SDS011;8724;51.272;6.554;2023-12-29T07:45:13;7.73;;;1.90;;
4700;SDS011;8724;51.272;6.554;2023-12-29T07:47:41;3.37;;;1.67;;
4700;SDS011;8724;51.272;6.554;2023-12-29T07:50:09;5.80;;;2.07;;
4700;SDS011;8724;51.272;6.554;2023-12-29T07:52:39;4.03;;;1.30;;
4700;SDS011;8724;51.272;6.554;2023-12-29T07:55:10;6.67;;;1.67;;
4700;SDS011;8724;51.272;6.554;2023-12-29T07:57:38;3.53;;;1.40;;
4700;SDS011;8724;51.272;6.554;2023-12-29T08:00:07;5.97;;;1.87;;
4700;SDS011;8724;51.272;6.554;2023-12-29T08:02:38;6.83;;;2.10;;
4700;SDS011;8724;51.272;6.554;2023-12-29T08:05:07;8.50;;;1.90;;
4700;SDS011;8724;51.272;6.554;2023-12-29T08:07:35;16.37;;;2.53;;
4700;SDS011;8724;51.272;6.554;2023-12-29T08:10:06;6.63;;;1.93;;
4700;SDS011;8724;51.272;6.554;2023-12-29T08:12:35;12.00;;;2.50;;
4700;SDS011;8724;51.272;6.554;2023-12-29T08:15:03;4.20;;;1.30;;
4700;SDS011;8724;51.272;6.554;2023-12-29T08:17:33;3.97;;;1.87;;
4700;SDS011;8724;51.272;6.554;2023-12-29T08:20:01;8.07;;;1.70;;
4700;SDS011;8724;51.272;6.554;2023-12-29T08:22:30;3.83;;;1.40;;
4700;SDS011;8724;51.272;6.554;2023-12-29T08:24:59;2.90;;;1.60;;
4700;SDS011;8724;51.272;6.554;2023-12-29T08:27:29;5.73;;;1.50;;
4700;SDS011;8724;51.272;6.554;2023-12-29T08:29:58;7.07;;;1.67;;
4700;SDS011;8724;51.272;6.554;2023-12-29T08:32:26;7.17;;;1.50;;
4700;SDS011;8724;51.272;6.554;2023-12-29T08:34:54;3.40;;;1.70;;
4700;SDS011;8724;51.272;6.554;2023-12-29T08:37:22;3.70;;;1.50;;
4700;SDS011;8724;51.272;6.554;2023-12-29T08:39:51;4.57;;;1.60;;
4700;SDS011;8724;51.272;6.554;2023-12-29T08:42:21;3.10;;;1.10;;
4700;SDS011;8724;51.272;6.554;2023-12-29T08:44:50;3.10;;;1.53;;
4700;SDS011;8724;51.272;6.554;2023-12-29T08:47:19;2.47;;;1.60;;
4700;SDS011;8724;51.272;6.554;2023-12-29T08:49:47;3.10;;;1.10;;
4700;SDS011;8724;51.272;6.554;2023-12-29T08:52:15;2.60;;;1.33;;
4700;SDS011;8724;51.272;6.554;2023-12-29T08:54:43;1.43;;;1.20;;
4700;SDS011;8724;51.272;6.554;2023-12-29T08:57:11;2.80;;;1.10;;
4700;SDS011;8724;51.272;6.554;2023-12-29T08:59:39;4.83;;;1.37;;
4700;SDS011;8724;51.272;6.554;2023-12-29T09:02:09;0.87;;;0.73;;
4700;SDS011;8724;51.272;6.554;2023-12-29T09:04:37;4.00;;;1.30;;
4700;SDS011;8724;51.272;6.554;2023-12-29T09:07:06;2.60;;;1.10;;
4700;SDS011;8724;51.272;6.554;2023-12-29T09:09:34;1.13;;;0.93;;
4700;SDS011;8724;51.272;6.554;2023-12-29T09:12:02;2.93;;;1.10;;
4700;SDS011;8724;51.272;6.554;2023-12-29T09:14:31;1.50;;;0.73;;
4700;SDS011;8724;51.272;6.554;2023-12-29T09:17:00;2.63;;;0.90;;
4700;SDS011;8724;51.272;6.554;2023-12-29T09:19:30;1.60;;;0.90;;
4700;SDS011;8724;51.272;6.554;2023-12-29T09:22:06;1.60;;;0.70;;
4700;SDS011;8724;51.272;6.554;2023-12-29T09:24:34;2.30;;;0.77;;
4700;SDS011;8724;51.272;6.554;2023-12-29T09:27:02;2.20;;;1.10;;
4700;SDS011;8724;51.272;6.554;2023-12-29T09:29:31;1.67;;;0.93;;
4700;SDS011;8724;51.272;6.554;2023-12-29T09:31:59;1.07;;;0.87;;
4700;SDS011;8724;51.272;6.554;2023-12-29T09:34:27;1.70;;;1.00;;
4700;SDS011;8724;51.272;6.554;2023-12-29T09:36:57;1.20;;;0.70;;
4700;SDS011;8724;51.272;6.554;2023-12-29T09:39:25;2.93;;;0.87;;
4700;SDS011;8724;51.272;6.554;2023-12-29T09:41:55;2.33;;;1.00;;
4700;SDS011;8724;51.272;6.554;2023-12-29T09:44:27;3.00;;;0.87;;
4700;SDS011;8724;51.272;6.554;2023-12-29T09:46:55;1.37;;;0.90;;
4700;SDS011;8724;51.272;6.554;2023-12-29T09:49:33;1.53;;;0.87;;
4700;SDS011;8724;51.272;6.554;2023-12-29T09:52:06;1.13;;;0.70;;
4700;SDS011;8724;51.272;6.554;2023-12-29T09:54:36;0.80;;;0.70;;
4700;SDS011;8724;51.272;6.554;2023-12-29T09:57:05;2.40;;;1.00;;
4700;SDS011;8724;51.272;6.554;2023-12-29T09:59:35;3.40;;;0.90;;
4700;SDS011;8724;51.272;6.554;2023-12-29T10:02:05;2.40;;;1.20;;
4700;SDS011;8724;51.272;6.554;2023-12-29T10:04:39;1.70;;;0.80;;
4700;SDS011;8724;51.272;6.554;2023-12-29T10:07:10;1.93;;;1.20;;
4700;SDS011;8724;51.272;6.554;2023-12-29T10:09:46;2.20;;;0.77;;
4700;SDS011;8724;51.272;6.554;2023-12-29T10:12:17;2.70;;;1.00;;
4700;SDS011;8724;51.272;6.554;2023-12-29T10:14:48;1.60;;;0.93;;
4700;SDS011;8724;51.272;6.554;2023-12-29T10:17:24;2.17;;;1.40;;
4700;SDS011;8724;51.272;6.554;2023-12-29T10:20:07;6.97;;;1.57;;
4700;SDS011;8724;51.272;6.554;2023-12-29T10:22:47;4.70;;;1.20;;
4700;SDS011;8724;51.272;6.554;2023-12-29T10:25:19;3.97;;;1.70;;
4700;SDS011;8724;51.272;6.554;2023-12-29T10:27:49;2.77;;;1.10;;
4700;SDS011;8724;51.272;6.554;2023-12-29T10:30:19;1.70;;;1.20;;
4700;SDS011;8724;51.272;6.554;2023-12-29T10:32:59;2.97;;;1.60;;
4700;SDS011;8724;51.272;6.554;2023-12-29T10:35:30;2.43;;;1.03;;
4700;SDS011;8724;51.272;6.554;2023-12-29T10:38:09;2.37;;;1.30;;
4700;SDS011;8724;51.272;6.554;2023-12-29T10:40:38;1.00;;;0.80;;
4700;SDS011;8724;51.272;6.554;2023-12-29T10:43:09;3.23;;;1.50;;
4700;SDS011;8724;51.272;6.554;2023-12-29T10:45:37;1.87;;;0.80;;
4700;SDS011;8724;51.272;6.554;2023-12-29T10:48:06;1.37;;;0.90;;
4700;SDS011;8724;51.272;6.554;2023-12-29T10:50:42;9.20;;;1.03;;
4700;SDS011;8724;51.272;6.554;2023-12-29T10:53:13;3.30;;;1.10;;
4700;SDS011;8724;51.272;6.554;2023-12-29T10:55:43;1.00;;;0.90;;
4700;SDS011;8724;51.272;6.554;2023-12-29T10:58:11;2.47;;;1.20;;
4700;SDS011;8724;51.272;6.554;2023-12-29T11:00:43;3.60;;;1.23;;
4700;SDS011;8724;51.272;6.554;2023-12-29T11:03:12;3.10;;;1.00;;
4700;SDS011;8724;51.272;6.554;2023-12-29T11:05:42;5.43;;;1.67;;
4700;SDS011;8724;51.272;6.554;2023-12-29T11:08:16;2.03;;;1.20;;
4700;SDS011;8724;51.272;6.554;2023-12-29T11:10:45;3.10;;;1.10;;
4700;SDS011;8724;51.272;6.554;2023-12-29T11:13:15;3.10;;;1.13;;
4700;SDS011;8724;51.272;6.554;2023-12-29T11:15:46;5.97;;;1.77;;
4700;SDS011;8724;51.272;6.554;2023-12-29T11:18:16;3.27;;;1.00;;
4700;SDS011;8724;51.272;6.554;2023-12-29T11:20:45;1.43;;;1.07;;
4700;SDS011;8724;51.272;6.554;2023-12-29T11:23:13;3.67;;;1.20;;
4700;SDS011;8724;51.272;6.554;2023-12-29T11:25:44;3.60;;;1.50;;
4700;SDS011;8724;51.272;6.554;2023-12-29T11:28:12;2.43;;;1.50;;
4700;SDS011;8724;51.272;6.554;2023-12-29T11:30:42;2.20;;;1.07;;
4700;SDS011;8724;51.272;6.554;2023-12-29T11:33:12;3.13;;;1.57;;
4700;SDS011;8724;51.272;6.554;2023-12-29T11:35:47;4.47;;;1.57;;
4700;SDS011;8724;51.272;6.554;2023-12-29T11:38:33;3.70;;;1.47;;
4700;SDS011;8724;51.272;6.554;2023-12-29T11:41:13;6.77;;;1.40;;
4700;SDS011;8724;51.272;6.554;2023-12-29T11:43:55;3.53;;;1.27;;
4700;SDS011;8724;51.272;6.554;2023-12-29T11:46:34;2.70;;;1.07;;
4700;SDS011;8724;51.272;6.554;2023-12-29T11:49:03;3.50;;;1.40;;
4700;SDS011;8724;51.272;6.554;2023-12-29T11:51:33;2.63;;;1.40;;
4700;SDS011;8724;51.272;6.554;2023-12-29T11:54:04;3.40;;;1.43;;
4700;SDS011;8724;51.272;6.554;2023-12-29T11:56:34;10.03;;;1.63;;
4700;SDS011;8724;51.272;6.554;2023-12-29T11:59:12;4.47;;;1.43;;
4700;SDS011;8724;51.272;6.554;2023-12-29T12:01:46;1.47;;;1.30;;
4700;SDS011;8724;51.272;6.554;2023-12-29T12:04:34;2.50;;;1.00;;
4700;SDS011;8724;51.272;6.554;2023-12-29T12:07:04;3.37;;;1.33;;
4700;SDS011;8724;51.272;6.554;2023-12-29T12:09:35;5.33;;;1.43;;
4700;SDS011;8724;51.272;6.554;2023-12-29T12:12:04;1.93;;;1.00;;
4700;SDS011;8724;51.272;6.554;2023-12-29T12:14:48;2.93;;;1.00;;
4700;SDS011;8724;51.272;6.554;2023-12-29T12:17:27;0.83;;;0.73;;
4700;SDS011;8724;51.272;6.554;2023-12-29T12:19:57;1.07;;;0.73;;
4700;SDS011;8724;51.272;6.554;2023-12-29T12:22:29;0.90;;;0.90;;
4700;SDS011;8724;51.272;6.554;2023-12-29T12:25:05;2.07;;;1.00;;
4700;SDS011;8724;51.272;6.554;2023-12-29T12:27:36;3.70;;;1.43;;
4700;SDS011;8724;51.272;6.554;2023-12-29T12:30:06;2.80;;;1.30;;
4700;SDS011;8724;51.272;6.554;2023-12-29T12:32:37;1.90;;;1.40;;
4700;SDS011;8724;51.272;6.554;2023-12-29T12:35:13;2.17;;;1.10;;
4700;SDS011;8724;51.272;6.554;2023-12-29T12:37:46;1.27;;;1.17;;
4700;SDS011;8724;51.272;6.554;2023-12-29T12:40:25;3.63;;;1.47;;
4700;SDS011;8724;51.272;6.554;2023-12-29T12:42:54;1.63;;;0.80;;
4700;SDS011;8724;51.272;6.554;2023-12-29T12:45:22;3.00;;;1.37;;
4700;SDS011;8724;51.272;6.554;2023-12-29T12:47:55;2.87;;;1.97;;
4700;SDS011;8724;51.272;6.554;2023-12-29T12:50:30;2.90;;;1.13;;
4700;SDS011;8724;51.272;6.554;2023-12-29T12:52:58;2.60;;;1.13;;
4700;SDS011;8724;51.272;6.554;2023-12-29T12:55:31;2.33;;;1.10;;
4700;SDS011;8724;51.272;6.554;2023-12-29T12:58:03;1.70;;;1.10;;
4700;SDS011;8724;51.272;6.554;2023-12-29T13:00:31;1.07;;;0.90;;
4700;SDS011;8724;51.272;6.554;2023-12-29T13:03:00;0.90;;;0.80;;
4700;SDS011;8724;51.272;6.554;2023-12-29T13:05:29;2.40;;;1.20;;
4700;SDS011;8724;51.272;6.554;2023-12-29T13:07:57;2.93;;;1.30;;
4700;SDS011;8724;51.272;6.554;2023-12-29T13:10:26;4.73;;;1.07;;
4700;SDS011;8724;51.272;6.554;2023-12-29T13:12:55;3.33;;;1.53;;
4700;SDS011;8724;51.272;6.554;2023-12-29T13:15:24;3.00;;;1.03;;
4700;SDS011;8724;51.272;6.554;2023-12-29T13:17:52;3.03;;;1.10;;
4700;SDS011;8724;51.272;6.554;2023-12-29T13:20:21;1.70;;;1.20;;
4700;SDS011;8724;51.272;6.554;2023-12-29T13:22:49;1.37;;;1.27;;
4700;SDS011;8724;51.272;6.554;2023-12-29T13:25:18;3.10;;;1.43;;
4700;SDS011;8724;51.272;6.554;2023-12-29T13:27:48;3.90;;;1.37;;
4700;SDS011;8724;51.272;6.554;2023-12-29T13:30:19;2.30;;;1.37;;
4700;SDS011;8724;51.272;6.554;2023-12-29T13:32:47;4.47;;;1.60;;
4700;SDS011;8724;51.272;6.554;2023-12-29T13:35:18;3.93;;;1.63;;
4700;SDS011;8724;51.272;6.554;2023-12-29T13:37:53;3.60;;;1.20;;
4700;SDS011;8724;51.272;6.554;2023-12-29T13:40:33;2.93;;;1.23;;
4700;SDS011;8724;51.272;6.554;2023-12-29T13:43:07;6.83;;;1.17;;
4700;SDS011;8724;51.272;6.554;2023-12-29T13:45:38;2.50;;;1.10;;
4700;SDS011;8724;51.272;6.554;2023-12-29T13:48:09;2.30;;;1.30;;
4700;SDS011;8724;51.272;6.554;2023-12-29T13:53:15;3.80;;;1.30;;
4700;SDS011;8724;51.272;6.554;2023-12-29T13:55:44;2.80;;;1.40;;
4700;SDS011;8724;51.272;6.554;2023-12-29T13:58:13;4.40;;;1.53;;
4700;SDS011;8724;51.272;6.554;2023-12-29T14:00:42;2.60;;;1.30;;
4700;SDS011;8724;51.272;6.554;2023-12-29T14:03:14;5.67;;;1.20;;
4700;SDS011;8724;51.272;6.554;2023-12-29T14:05:51;1.77;;;1.00;;
4700;SDS011;8724;51.272;6.554;2023-12-29T14:08:23;3.43;;;1.40;;
4700;SDS011;8724;51.272;6.554;2023-12-29T14:10:54;3.07;;;1.20;;
4700;SDS011;8724;51.272;6.554;2023-12-29T14:13:23;5.53;;;1.40;;
4700;SDS011;8724;51.272;6.554;2023-12-29T14:15:53;3.03;;;1.17;;
4700;SDS011;8724;51.272;6.554;2023-12-29T14:18:26;1.67;;;1.20;;
4700;SDS011;8724;51.272;6.554;2023-12-29T14:21:22;1.40;;;0.90;;
4700;SDS011;8724;51.272;6.554;2023-12-29T14:24:01;2.10;;;1.00;;
4700;SDS011;8724;51.272;6.554;2023-12-29T14:26:35;5.27;;;1.20;;
4700;SDS011;8724;51.272;6.554;2023-12-29T14:29:04;4.10;;;0.87;;
4700;SDS011;8724;51.272;6.554;2023-12-29T14:31:36;1.87;;;1.40;;
4700;SDS011;8724;51.272;6.554;2023-12-29T14:34:05;1.30;;;1.20;;
4700;SDS011;8724;51.272;6.554;2023-12-29T14:36:34;2.20;;;1.03;;
4700;SDS011;8724;51.272;6.554;2023-12-29T14:39:03;4.47;;;1.20;;
4700;SDS011;8724;51.272;6.554;2023-12-29T14:41:32;0.97;;;0.83;;
4700;SDS011;8724;51.272;6.554;2023-12-29T14:44:01;2.20;;;1.17;;
4700;SDS011;8724;51.272;6.554;2023-12-29T14:46:29;0.67;;;0.67;;
4700;SDS011;8724;51.272;6.554;2023-12-29T14:49:00;2.50;;;0.90;;
4700;SDS011;8724;51.272;6.554;2023-12-29T14:51:29;1.53;;;0.90;;
4700;SDS011;8724;51.272;6.554;2023-12-29T14:53:57;4.20;;;1.30;;
4700;SDS011;8724;51.272;6.554;2023-12-29T14:56:25;0.93;;;0.70;;
4700;SDS011;8724;51.272;6.554;2023-12-29T14:58:53;2.80;;;0.80;;
4700;SDS011;8724;51.272;6.554;2023-12-29T15:01:21;1.00;;;0.80;;
4700;SDS011;8724;51.272;6.554;2023-12-29T15:03:50;1.07;;;0.70;;
4700;SDS011;8724;51.272;6.554;2023-12-29T15:06:19;3.33;;;0.77;;
4700;SDS011;8724;51.272;6.554;2023-12-29T15:08:47;4.17;;;0.90;;
4700;SDS011;8724;51.272;6.554;2023-12-29T15:11:15;4.30;;;1.10;;
4700;SDS011;8724;51.272;6.554;2023-12-29T15:13:46;0.83;;;0.70;;
4700;SDS011;8724;51.272;6.554;2023-12-29T15:16:14;0.87;;;0.87;;
4700;SDS011;8724;51.272;6.554;2023-12-29T15:18:43;1.33;;;1.23;;
4700;SDS011;8724;51.272;6.554;2023-12-29T15:21:12;3.30;;;1.13;;
4700;SDS011;8724;51.272;6.554;2023-12-29T15:23:41;1.07;;;0.97;;
4700;SDS011;8724;51.272;6.554;2023-12-29T15:26:09;0.90;;;0.80;;
4700;SDS011;8724;51.272;6.554;2023-12-29T15:28:41;1.80;;;1.10;;
4700;SDS011;8724;51.272;6.554;2023-12-29T15:31:10;1.93;;;1.10;;
4700;SDS011;8724;51.272;6.554;2023-12-29T15:33:39;1.23;;;0.90;;